Latest Weather Observations for Casterton

IDV60801

Issued at 7:35 pm EST Thursday 17 April 2014 (issued every 30 minutes, with the page automatically refreshed every 10 minutes)

About weather observations | Map of weather stations | Latest weather observations for VIC | Other Formats
Station Details ID: 090182 Name: CASTERTON Lat: -37.58 Lon: 141.33 Height: 130.6 m
Data from the previous 72 hours. | See also: Recent months at Casterton
Date/Time
EST
Temp
°C
App
Temp
°C
Dew
Point
Rel
Hum
%
Delta-T
°C
Wind Press
QNH
hPa
Press
MSL
hPa
Rain
since 9 am
mm
Dir
 
Spd
km/h
Gust
km/h
Spd
kts
Gust
kts
17/07:30pm 11.7 11.0 10.1 90 0.8 NNW 4 7 2 4 1018.6 - 0.0
17/07:00pm 12.3 11.2 10.0 86 1.2 W 6 7 3 4 1018.6 - 0.0
17/06:30pm 13.7 12.4 9.9 78 2.0 W 7 9 4 5 1018.4 - 0.0
17/06:00pm 15.2 13.5 10.0 71 2.7 W 9 13 5 7 1018.4 1018.3 0.0
17/05:30pm 17.0 14.7 10.4 65 3.5 WSW 13 20 7 11 1018.3 - 0.0
17/05:00pm 18.1 14.5 10.7 62 4.0 WSW 20 32 11 17 1018.3 - 0.0
17/04:30pm 19.1 15.5 11.7 62 4.1 WSW 22 32 12 17 1018.1 - 0.0
17/04:00pm 19.2 16.7 12.2 64 3.9 SW 17 20 9 11 1018.0 - 0.0
17/03:30pm 20.8 17.7 11.7 56 5.1 WNW 19 28 10 15 1018.0 - 0.0
17/03:00pm 21.6 19.4 12.2 55 5.3 WNW 15 28 8 15 1018.1 1018.0 0.0
17/02:30pm 20.3 17.1 11.2 56 5.0 WNW 19 28 10 15 1018.2 - 0.0
17/02:00pm 20.8 18.1 12.8 60 4.6 NW 19 26 10 14 1018.4 - 0.0
17/01:30pm 19.8 17.1 13.0 65 3.9 NW 19 30 10 16 1018.9 - 0.0
17/01:00pm 19.3 16.7 13.2 68 3.5 NW 19 24 10 13 1019.3 - 0.0
17/12:30pm 19.7 17.9 14.5 72 3.0 N 17 26 9 14 1019.6 - 0.0
17/12:00pm 18.7 16.7 13.8 73 2.8 N 17 20 9 11 1020.3 1020.2 0.0
17/11:30am 17.4 15.9 14.3 82 1.8 N 15 20 8 11 1020.5 - 0.0
17/11:00am 15.5 15.1 14.0 91 0.9 N 9 15 5 8 1020.7 - 0.0
17/10:30am 14.3 14.2 14.0 98 0.2 N 7 15 4 8 1020.8 - 0.0
17/10:00am 13.0 12.5 12.8 99 0.1 NE 7 9 4 5 1020.7 - 0.0
17/09:30am 11.8 11.0 11.6 99 0.1 NE 7 9 4 5 1020.7 - 0.0
17/09:00am 10.2 9.1 10.0 99 0.1 NE 6 7 3 4 1020.9 1020.8 1.4
17/08:30am 9.3 8.0 9.2 99 0.0 NE 6 7 3 4 1020.7 - 1.4
17/08:00am 8.8 7.4 8.7 99 0.0 NE 6 7 3 4 1020.4 - 1.4
17/07:30am 7.1 5.1 7.0 99 0.0 NE 7 9 4 5 1019.8 - 1.4
17/07:00am 6.8 4.7 6.7 99 0.0 NE 7 11 4 6 1019.7 - 1.2
17/06:30am 5.4 4.3 5.3 99 0.0 CALM 0 0 0 0 1019.7 - 1.2
17/06:00am 5.5 4.5 5.4 99 0.0 CALM 0 2 0 1 1019.5 1019.5 1.2
17/05:30am 5.9 4.2 5.8 99 0.0 NE 4 6 2 3 1019.4 - 1.2
17/05:00am 6.0 3.9 5.9 99 0.0 NE 6 7 3 4 1019.1 - 1.2
17/04:30am 6.7 4.8 6.6 99 0.0 NE 6 7 3 4 1019.0 - 1.2
17/04:00am 6.4 4.4 6.3 99 0.0 NE 6 7 3 4 1018.9 - 1.2
17/03:30am 6.9 4.8 6.8 99 0.0 NE 7 7 4 4 1018.7 - 1.2
17/03:00am 7.2 5.2 7.1 99 0.0 NE 7 7 4 4 1018.8 1018.7 1.2
17/02:30am 6.5 4.3 6.4 99 0.0 ENE 7 9 4 5 1019.1 - 1.2
17/02:00am 7.3 5.9 7.2 99 0.0 NE 4 7 2 4 1019.3 - 1.2
17/01:30am 7.4 6.8 7.3 99 0.0 CALM 0 0 0 0 1019.2 - 1.2
17/01:00am 7.4 6.8 7.3 99 0.0 CALM 0 0 0 0 1019.2 - 1.2
17/12:30am 8.0 7.5 7.9 99 0.0 CALM 0 0 0 0 1019.2 - 1.2
17/12:00am 8.6 7.5 8.5 99 0.0 NE 4 6 2 3 1019.3 1019.3 1.2
 
Date/Time
EST
Temp
°C
App
Temp
°C
Dew
Point
Rel
Hum
%
Delta-T
°C
Wind Press
QNH
hPa
Press
MSL
hPa
Rain
since 9 am
mm
Dir
 
Spd
km/h
Gust
km/h
Spd
kts
Gust
kts
16/11:30pm 8.1 6.5 8.0 99 0.0 ENE 6 7 3 4 1019.4 - 1.2
16/11:00pm 8.3 7.9 8.2 99 0.0 CALM 0 0 0 0 1019.6 - 1.2
16/10:30pm 9.1 8.9 9.0 99 0.0 CALM 0 0 0 0 1019.7 - 1.2
16/10:00pm 9.3 9.1 9.2 99 0.0 CALM 0 0 0 0 1019.7 - 1.2
16/09:30pm 10.7 10.9 10.5 99 0.1 CALM 0 0 0 0 1019.7 - 1.2
16/09:00pm 11.5 11.9 11.2 98 0.2 CALM 0 0 0 0 1019.6 1019.6 1.2
16/08:30pm 11.9 12.4 11.6 98 0.2 CALM 0 0 0 0 1019.7 - 1.2
16/08:00pm 12.1 12.7 11.8 98 0.2 CALM 0 0 0 0 1019.5 - 1.0
16/07:30pm 12.2 12.8 11.9 98 0.2 CALM 0 0 0 0 1019.4 - 1.0
16/07:00pm 12.6 12.0 12.3 98 0.2 SW 7 9 4 5 1019.2 - 1.0
16/06:30pm 13.2 12.8 12.9 98 0.2 SSE 7 13 4 7 1018.9 - 1.0
16/06:00pm 13.7 12.7 12.3 91 0.8 SW 9 15 5 8 1019.0 1019.0 0.8
16/05:30pm 15.9 13.9 10.0 68 3.1 WSW 11 17 6 9 1019.2 - 0.0
16/05:00pm 17.5 14.0 8.9 57 4.5 SW 17 22 9 12 1019.0 - 0.0
16/04:30pm 18.5 15.3 10.1 58 4.5 SW 17 22 9 12 1018.9 - 0.0
16/04:00pm 19.5 16.2 9.4 52 5.4 WSW 17 28 9 15 1018.6 - 0.0
16/03:30pm 20.1 16.7 9.1 49 5.8 W 17 24 9 13 1018.5 - 0.0
16/03:00pm 20.8 16.3 8.4 45 6.5 W 22 30 12 16 1018.3 1018.2 0.0
16/02:30pm 20.5 16.5 9.1 48 6.1 W 20 30 11 16 1018.3 - 0.0
16/02:00pm 20.0 16.3 9.3 50 5.7 NW 19 28 10 15 1018.3 - 0.0
16/01:30pm 20.0 16.7 9.6 51 5.6 WNW 17 26 9 14 1018.2 - 0.0
16/01:00pm 19.6 17.0 9.5 52 5.4 WNW 13 22 7 12 1018.6 - 0.0
16/12:30pm 19.3 16.6 10.3 56 4.9 W 15 19 8 10 1019.1 - 0.0
16/12:00pm 18.8 16.1 10.4 58 4.5 WNW 15 20 8 11 1019.4 1019.4 0.0
16/11:30am 19.1 16.3 10.1 56 4.8 NNW 15 20 8 11 1019.4 - 0.0
16/11:00am 19.7 16.4 10.9 57 4.8 NNW 19 24 10 13 1019.6 - 0.0
16/10:30am 17.0 14.2 10.1 64 3.7 N 15 24 8 13 1020.0 - 0.0
16/10:00am 15.4 14.3 12.0 80 1.9 NNE 9 15 5 8 1020.1 - 0.0
16/09:30am 12.3 11.6 12.0 98 0.2 NE 7 9 4 5 1020.3 - 0.0
16/09:00am 11.1 9.7 10.9 99 0.1 NE 9 11 5 6 1020.4 1020.3 0.0
16/08:30am 9.9 8.8 9.8 99 0.1 NE 6 7 3 4 1020.5 - 0.0
16/08:00am 8.1 7.3 8.0 99 0.0 ENE 2 7 1 4 1020.3 - 0.0
16/07:30am 7.5 5.8 7.4 99 0.0 NE 6 7 3 4 1020.3 - 0.0
16/07:00am 7.3 5.3 7.2 99 0.0 NE 7 9 4 5 1020.1 - 0.0
16/06:30am 8.1 6.5 8.0 99 0.0 NE 6 6 3 3 1020.1 - 0.0
16/06:00am 8.2 7.7 7.9 98 0.1 CALM 0 7 0 4 1019.9 1019.9 0.0
16/05:30am 8.9 8.6 8.6 98 0.1 CALM 0 0 0 0 1019.8 - 0.0
16/05:00am 9.1 8.5 8.8 98 0.1 E 2 9 1 5 1019.8 - 0.0
16/04:30am 9.4 8.5 9.1 98 0.1 E 4 7 2 4 1020.0 - 0.0
16/04:00am 9.4 8.1 9.1 98 0.1 ESE 6 9 3 5 1020.4 - 0.0
16/03:30am 9.5 9.0 9.2 98 0.1 SE 2 7 1 4 1020.6 - 0.0
16/03:00am 9.8 7.6 9.5 98 0.1 E 11 13 6 7 1020.6 1020.5 0.0
16/02:30am 9.8 8.0 9.5 98 0.2 E 9 13 5 7 1021.0 - 0.0
16/02:00am 10.0 7.9 9.7 98 0.2 E 11 13 6 7 1021.5 - 0.0
16/01:30am 10.2 8.5 9.9 98 0.2 E 9 15 5 8 1021.6 - 0.0
16/01:00am 10.4 8.4 10.1 98 0.2 E 11 17 6 9 1021.5 - 0.0
16/12:30am 10.7 8.4 10.4 98 0.2 E 13 19 7 10 1021.6 - 0.0
16/12:00am 10.7 8.4 10.4 98 0.2 E 13 20 7 11 1021.7 1021.6 0.0
 
Date/Time
EST
Temp
°C
App
Temp
°C
Dew
Point
Rel
Hum
%
Delta-T
°C
Wind Press
QNH
hPa
Press
MSL
hPa
Rain
since 9 am
mm
Dir
 
Spd
km/h
Gust
km/h
Spd
kts
Gust
kts
15/11:30pm 10.8 8.5 10.5 98 0.2 E 13 19 7 10 1021.9 - 0.0
15/11:00pm 11.3 8.8 11.0 98 0.2 E 15 24 8 13 1022.2 - 0.0
15/10:30pm 11.5 9.0 11.2 98 0.2 E 15 20 8 11 1022.7 - 0.0
15/10:00pm 11.8 9.0 11.5 98 0.2 ESE 17 24 9 13 1022.8 - 0.0
15/09:30pm 12.3 8.7 11.8 97 0.3 ESE 22 30 12 16 1022.6 - 0.0
15/09:00pm 12.6 10.0 12.0 96 0.3 E 17 24 9 13 1022.7 1022.6 0.0
15/08:30pm 12.9 11.2 12.3 96 0.3 ESE 13 19 7 10 1022.6 - 0.0
15/08:00pm 12.6 11.2 12.3 98 0.2 SSE 11 17 6 9 1022.7 - 0.0
15/07:30pm 13.1 11.4 12.3 95 0.4 SSE 13 17 7 9 1023.0 - 0.0
15/07:00pm 13.2 12.0 11.6 90 0.9 S 9 13 5 7 1022.8 - 0.0
15/06:30pm 14.5 12.8 11.3 81 1.7 SSE 11 15 6 8 1022.3 - 0.0
15/06:00pm 15.9 13.8 11.3 74 2.5 SSE 13 20 7 11 1021.9 1021.8 0.0
15/05:30pm 17.5 15.5 11.5 68 3.3 S 13 17 7 9 1021.8 - 0.0
15/05:00pm 17.5 15.4 11.1 66 3.5 S 13 17 7 9 1021.6 - 0.0
15/04:30pm 17.5 15.0 10.9 65 3.6 SSE 15 20 8 11 1021.5 - 0.0
15/04:00pm 20.0 17.9 11.2 57 4.9 S 13 24 7 13 1021.5 - 0.0
15/03:30pm 18.7 16.8 10.5 59 4.4 SE 11 17 6 9 1021.6 - 0.0
15/03:00pm 18.7 16.4 10.5 59 4.4 SE 13 20 7 11 1021.7 1021.6 0.0
15/02:30pm 18.3 16.4 10.4 60 4.3 SSE 11 15 6 8 1021.8 - 0.0
15/02:00pm 20.0 18.1 10.4 54 5.2 SE 11 20 6 11 1021.8 - 0.0
15/01:30pm 18.7 16.8 11.8 64 3.8 ESE 13 17 7 9 1022.5 - 0.0
15/01:00pm 18.7 17.3 12.2 66 3.6 ESE 11 17 6 9 1022.9 - 0.0
15/12:30pm 17.9 15.0 11.0 64 3.8 SE 17 24 9 13 1023.4 - 0.0
15/12:00pm 18.3 16.5 12.1 67 3.4 SE 13 20 7 11 1023.8 1023.7 0.0
15/11:30am 16.3 15.1 12.8 80 2.0 SSE 11 15 6 8 1024.3 - 0.0
15/11:00am 16.3 15.0 13.8 85 1.4 E 13 20 7 11 1024.5 - 0.0
15/10:30am 13.4 11.9 13.1 98 0.2 E 13 19 7 10 1024.9 - 0.0
15/10:00am 12.7 11.0 12.5 99 0.1 ESE 13 17 7 9 1025.0 - 0.0
15/09:30am 12.6 11.3 12.4 99 0.1 SE 11 15 6 8 1025.0 - 0.0
15/09:00am 12.1 11.4 11.9 99 0.1 SE 7 11 4 6 1024.8 1024.7 0.0
15/08:30am 11.4 11.0 11.2 99 0.1 N 4 7 2 4 1024.8 - 0.0
15/08:00am 9.5 9.4 9.4 99 0.0 CALM 0 0 0 0 1024.6 - 0.0
15/07:30am 8.3 7.9 8.2 99 0.0 CALM 0 0 0 0 1024.4 - 0.0
15/07:00am 8.0 7.5 7.9 99 0.0 CALM 0 0 0 0 1024.2 - 0.0
15/06:30am 7.5 6.9 7.4 99 0.0 CALM 0 0 0 0 1024.1 - 0.0
15/06:00am 6.5 5.7 6.4 99 0.0 CALM 0 0 0 0 1024.1 1024.0 0.0
15/05:30am 5.8 4.8 5.7 99 0.0 CALM 0 0 0 0 1024.0 - 0.0
15/05:00am 6.0 5.1 5.9 99 0.0 CALM 0 0 0 0 1024.0 - 0.0
15/04:30am 6.2 5.3 6.1 99 0.0 CALM 0 0 0 0 1023.8 - 0.0
15/04:00am 6.3 5.4 6.2 99 0.0 CALM 0 0 0 0 1023.8 - 0.0
15/03:30am 6.9 5.8 6.8 99 0.0 SSW 2 6 1 3 1023.8 - 0.0
15/03:00am 7.0 5.5 6.9 99 0.0 SSW 4 6 2 3 1023.8 1023.7 0.0
15/02:30am 8.0 7.5 7.9 99 0.0 CALM 0 0 0 0 1023.9 - 0.0
15/02:00am 6.9 6.2 6.8 99 0.0 CALM 0 0 0 0 1024.1 - 0.0
15/01:30am 7.5 5.8 7.4 99 0.0 S 6 7 3 4 1024.2 - 0.0
15/01:00am 8.7 8.4 8.6 99 0.0 CALM 0 0 0 0 1024.0 - 0.0
15/12:30am 9.4 8.1 9.3 99 0.0 SE 6 7 3 4 1024.1 - 0.0
15/12:00am 10.1 8.8 9.9 99 0.1 SE 7 9 4 5 1024.1 1024.0 0.0
 
Date/Time
EST
Temp
°C
App
Temp
°C
Dew
Point
Rel
Hum
%
Delta-T
°C
Wind Press
QNH
hPa
Press
MSL
hPa
Rain
since 9 am
mm
Dir
 
Spd
km/h
Gust
km/h
Spd
kts
Gust
kts
14/11:30pm 11.1 10.1 10.9 99 0.1 SE 7 7 4 4 1024.2 - 0.0
14/11:00pm 10.8 9.7 10.5 98 0.2 SSE 7 11 4 6 1024.4 - 0.0
14/10:30pm 12.0 10.1 11.7 98 0.2 ESE 13 17 7 9 1024.3 - 0.0
14/10:00pm 11.3 10.3 11.0 98 0.2 SE 7 13 4 7 1024.5 - 0.0
14/09:30pm 11.5 10.2 11.2 98 0.2 SE 9 13 5 7 1024.6 - 0.0
14/09:00pm 11.9 10.7 11.6 98 0.2 SE 9 13 5 7 1024.6 1024.5 0.0
14/08:30pm 12.6 11.6 12.3 98 0.2 ESE 9 13 5 7 1024.4 - 0.0
14/08:00pm 13.2 11.9 12.4 95 0.4 SE 11 17 6 9 1024.2 - 0.0

Other Formats:

Comma delimited format used in spreadsheet applications
http://www.bom.gov.au/fwo/IDV60801/IDV60801.95825.axf

JavaScript Object Notation format (JSON) in row-major order
http://www.bom.gov.au/fwo/IDV60801/IDV60801.95825.json